sensor_id;sensor_type;location;lat;lon;timestamp;P1;durP1;ratioP1;P2;durP2;ratioP2
68910;SDS011;55953;51.650;-0.522;2023-08-24T00:00:39;5.90;;;3.40;;
68910;SDS011;55953;51.650;-0.522;2023-08-24T00:03:28;7.60;;;3.40;;
68910;SDS011;55953;51.650;-0.522;2023-08-24T00:05:56;7.60;;;3.30;;
68910;SDS011;55953;51.650;-0.522;2023-08-24T00:08:24;7.70;;;3.60;;
68910;SDS011;55953;51.650;-0.522;2023-08-24T00:10:51;6.40;;;3.50;;
68910;SDS011;55953;51.650;-0.522;2023-08-24T00:13:19;6.90;;;3.20;;
68910;SDS011;55953;51.650;-0.522;2023-08-24T00:15:48;7.40;;;3.30;;
68910;SDS011;55953;51.650;-0.522;2023-08-24T00:18:15;7.80;;;3.30;;
68910;SDS011;55953;51.650;-0.522;2023-08-24T00:20:45;6.30;;;3.00;;
68910;SDS011;55953;51.650;-0.522;2023-08-24T00:23:16;5.50;;;3.20;;
68910;SDS011;55953;51.650;-0.522;2023-08-24T00:25:44;5.90;;;3.10;;
68910;SDS011;55953;51.650;-0.522;2023-08-24T00:28:12;7.10;;;3.60;;
68910;SDS011;55953;51.650;-0.522;2023-08-24T00:30:39;6.90;;;3.30;;
68910;SDS011;55953;51.650;-0.522;2023-08-24T00:33:08;6.60;;;3.30;;
68910;SDS011;55953;51.650;-0.522;2023-08-24T00:35:35;5.60;;;3.10;;
68910;SDS011;55953;51.650;-0.522;2023-08-24T00:38:03;8.40;;;3.70;;
68910;SDS011;55953;51.650;-0.522;2023-08-24T00:40:31;9.40;;;3.70;;
68910;SDS011;55953;51.650;-0.522;2023-08-24T00:43:00;6.40;;;3.70;;
68910;SDS011;55953;51.650;-0.522;2023-08-24T00:45:30;5.80;;;3.90;;
68910;SDS011;55953;51.650;-0.522;2023-08-24T00:48:01;7.40;;;3.30;;
68910;SDS011;55953;51.650;-0.522;2023-08-24T00:50:30;5.20;;;3.00;;
68910;SDS011;55953;51.650;-0.522;2023-08-24T00:52:59;5.90;;;3.10;;
68910;SDS011;55953;51.650;-0.522;2023-08-24T00:55:26;6.20;;;3.50;;
68910;SDS011;55953;51.650;-0.522;2023-08-24T00:57:55;5.60;;;3.10;;
68910;SDS011;55953;51.650;-0.522;2023-08-24T01:00:24;6.20;;;3.10;;
68910;SDS011;55953;51.650;-0.522;2023-08-24T01:02:52;5.80;;;3.00;;
68910;SDS011;55953;51.650;-0.522;2023-08-24T01:05:20;6.00;;;3.30;;
68910;SDS011;55953;51.650;-0.522;2023-08-24T01:07:48;7.10;;;3.10;;
68910;SDS011;55953;51.650;-0.522;2023-08-24T01:10:18;9.50;;;3.20;;
68910;SDS011;55953;51.650;-0.522;2023-08-24T01:13:04;5.80;;;2.80;;
68910;SDS011;55953;51.650;-0.522;2023-08-24T01:15:57;8.60;;;3.10;;
68910;SDS011;55953;51.650;-0.522;2023-08-24T01:18:32;7.60;;;3.20;;
68910;SDS011;55953;51.650;-0.522;2023-08-24T01:21:03;6.30;;;3.10;;
68910;SDS011;55953;51.650;-0.522;2023-08-24T01:23:43;5.40;;;2.90;;
68910;SDS011;55953;51.650;-0.522;2023-08-24T01:26:18;4.60;;;3.20;;
68910;SDS011;55953;51.650;-0.522;2023-08-24T01:28:47;7.20;;;3.30;;
68910;SDS011;55953;51.650;-0.522;2023-08-24T01:31:16;6.90;;;3.20;;
68910;SDS011;55953;51.650;-0.522;2023-08-24T01:33:45;7.40;;;3.50;;
68910;SDS011;55953;51.650;-0.522;2023-08-24T01:36:14;7.60;;;3.40;;
68910;SDS011;55953;51.650;-0.522;2023-08-24T01:38:55;6.50;;;3.50;;
68910;SDS011;55953;51.650;-0.522;2023-08-24T01:41:36;8.00;;;3.20;;
68910;SDS011;55953;51.650;-0.522;2023-08-24T01:44:13;7.30;;;3.30;;
68910;SDS011;55953;51.650;-0.522;2023-08-24T01:46:45;6.00;;;3.40;;
68910;SDS011;55953;51.650;-0.522;2023-08-24T01:49:17;6.10;;;3.00;;
68910;SDS011;55953;51.650;-0.522;2023-08-24T01:51:46;6.80;;;3.30;;
68910;SDS011;55953;51.650;-0.522;2023-08-24T01:54:14;6.30;;;3.20;;
68910;SDS011;55953;51.650;-0.522;2023-08-24T01:56:42;7.40;;;3.50;;
68910;SDS011;55953;51.650;-0.522;2023-08-24T01:59:10;6.40;;;3.40;;
68910;SDS011;55953;51.650;-0.522;2023-08-24T02:01:37;7.30;;;3.90;;
68910;SDS011;55953;51.650;-0.522;2023-08-24T02:04:05;6.60;;;3.50;;
68910;SDS011;55953;51.650;-0.522;2023-08-24T02:06:33;7.10;;;3.80;;
68910;SDS011;55953;51.650;-0.522;2023-08-24T02:09:01;7.30;;;3.60;;
68910;SDS011;55953;51.650;-0.522;2023-08-24T02:11:30;5.80;;;3.40;;
68910;SDS011;55953;51.650;-0.522;2023-08-24T02:13:58;7.90;;;3.10;;
68910;SDS011;55953;51.650;-0.522;2023-08-24T02:16:26;7.10;;;3.50;;
68910;SDS011;55953;51.650;-0.522;2023-08-24T02:18:54;7.30;;;3.60;;
68910;SDS011;55953;51.650;-0.522;2023-08-24T02:21:22;9.10;;;3.80;;
68910;SDS011;55953;51.650;-0.522;2023-08-24T02:23:49;6.30;;;3.70;;
68910;SDS011;55953;51.650;-0.522;2023-08-24T02:26:17;7.10;;;3.60;;
68910;SDS011;55953;51.650;-0.522;2023-08-24T02:28:45;7.40;;;3.50;;
68910;SDS011;55953;51.650;-0.522;2023-08-24T02:31:13;6.40;;;3.10;;
68910;SDS011;55953;51.650;-0.522;2023-08-24T02:33:40;6.20;;;3.30;;
68910;SDS011;55953;51.650;-0.522;2023-08-24T02:36:08;8.20;;;3.80;;
68910;SDS011;55953;51.650;-0.522;2023-08-24T02:38:36;7.40;;;3.50;;
68910;SDS011;55953;51.650;-0.522;2023-08-24T02:41:06;8.00;;;4.00;;
68910;SDS011;55953;51.650;-0.522;2023-08-24T02:43:35;6.60;;;3.60;;
68910;SDS011;55953;51.650;-0.522;2023-08-24T02:46:06;7.60;;;3.80;;
68910;SDS011;55953;51.650;-0.522;2023-08-24T02:48:35;6.40;;;3.60;;
68910;SDS011;55953;51.650;-0.522;2023-08-24T02:51:04;7.00;;;3.40;;
68910;SDS011;55953;51.650;-0.522;2023-08-24T02:53:33;9.20;;;3.90;;
68910;SDS011;55953;51.650;-0.522;2023-08-24T02:56:01;6.90;;;3.80;;
68910;SDS011;55953;51.650;-0.522;2023-08-24T02:58:31;7.90;;;4.10;;
68910;SDS011;55953;51.650;-0.522;2023-08-24T03:00:59;6.50;;;3.70;;
68910;SDS011;55953;51.650;-0.522;2023-08-24T03:03:26;6.80;;;3.90;;
68910;SDS011;55953;51.650;-0.522;2023-08-24T03:05:58;9.80;;;3.40;;
68910;SDS011;55953;51.650;-0.522;2023-08-24T03:08:30;5.80;;;3.20;;
68910;SDS011;55953;51.650;-0.522;2023-08-24T03:11:00;5.40;;;3.20;;
68910;SDS011;55953;51.650;-0.522;2023-08-24T03:13:30;7.50;;;3.30;;
68910;SDS011;55953;51.650;-0.522;2023-08-24T03:16:03;5.70;;;3.50;;
68910;SDS011;55953;51.650;-0.522;2023-08-24T03:18:32;6.20;;;3.30;;
68910;SDS011;55953;51.650;-0.522;2023-08-24T03:21:02;6.00;;;3.40;;
68910;SDS011;55953;51.650;-0.522;2023-08-24T03:23:32;6.50;;;3.50;;
68910;SDS011;55953;51.650;-0.522;2023-08-24T03:26:05;7.20;;;3.30;;
68910;SDS011;55953;51.650;-0.522;2023-08-24T03:28:34;8.80;;;3.20;;
68910;SDS011;55953;51.650;-0.522;2023-08-24T03:31:02;6.50;;;3.90;;
68910;SDS011;55953;51.650;-0.522;2023-08-24T03:33:30;5.70;;;3.60;;
68910;SDS011;55953;51.650;-0.522;2023-08-24T03:36:01;6.30;;;3.90;;
68910;SDS011;55953;51.650;-0.522;2023-08-24T03:38:30;7.40;;;3.90;;
68910;SDS011;55953;51.650;-0.522;2023-08-24T03:41:05;8.30;;;3.70;;
68910;SDS011;55953;51.650;-0.522;2023-08-24T03:43:34;7.70;;;3.80;;
68910;SDS011;55953;51.650;-0.522;2023-08-24T03:46:03;6.20;;;3.60;;
68910;SDS011;55953;51.650;-0.522;2023-08-24T03:48:33;6.50;;;3.40;;
68910;SDS011;55953;51.650;-0.522;2023-08-24T03:51:01;6.20;;;3.50;;
68910;SDS011;55953;51.650;-0.522;2023-08-24T03:53:29;7.60;;;3.90;;
68910;SDS011;55953;51.650;-0.522;2023-08-24T03:55:57;7.40;;;3.90;;
68910;SDS011;55953;51.650;-0.522;2023-08-24T03:58:24;6.50;;;3.90;;
68910;SDS011;55953;51.650;-0.522;2023-08-24T04:00:52;5.70;;;3.10;;
68910;SDS011;55953;51.650;-0.522;2023-08-24T04:03:22;5.50;;;3.10;;
68910;SDS011;55953;51.650;-0.522;2023-08-24T04:05:50;6.50;;;3.40;;
68910;SDS011;55953;51.650;-0.522;2023-08-24T04:08:17;6.80;;;3.30;;
68910;SDS011;55953;51.650;-0.522;2023-08-24T04:10:45;9.40;;;3.80;;
68910;SDS011;55953;51.650;-0.522;2023-08-24T04:13:13;8.50;;;3.70;;
68910;SDS011;55953;51.650;-0.522;2023-08-24T04:15:41;5.80;;;3.20;;
68910;SDS011;55953;51.650;-0.522;2023-08-24T04:18:09;6.90;;;3.60;;
68910;SDS011;55953;51.650;-0.522;2023-08-24T04:20:37;5.50;;;3.40;;
68910;SDS011;55953;51.650;-0.522;2023-08-24T04:23:05;6.00;;;3.40;;
68910;SDS011;55953;51.650;-0.522;2023-08-24T04:25:34;5.20;;;3.40;;
68910;SDS011;55953;51.650;-0.522;2023-08-24T04:28:02;6.80;;;3.70;;
68910;SDS011;55953;51.650;-0.522;2023-08-24T04:30:30;6.00;;;3.50;;
68910;SDS011;55953;51.650;-0.522;2023-08-24T04:32:58;8.10;;;3.80;;
68910;SDS011;55953;51.650;-0.522;2023-08-24T04:35:27;7.10;;;3.50;;
68910;SDS011;55953;51.650;-0.522;2023-08-24T04:37:55;6.20;;;3.70;;
68910;SDS011;55953;51.650;-0.522;2023-08-24T04:40:23;7.30;;;3.40;;
68910;SDS011;55953;51.650;-0.522;2023-08-24T04:42:51;8.00;;;3.40;;
68910;SDS011;55953;51.650;-0.522;2023-08-24T04:45:19;6.70;;;3.80;;
68910;SDS011;55953;51.650;-0.522;2023-08-24T04:47:46;5.90;;;3.40;;
68910;SDS011;55953;51.650;-0.522;2023-08-24T04:50:15;7.20;;;4.00;;
68910;SDS011;55953;51.650;-0.522;2023-08-24T04:52:43;6.00;;;3.50;;
68910;SDS011;55953;51.650;-0.522;2023-08-24T04:55:11;5.80;;;3.80;;
68910;SDS011;55953;51.650;-0.522;2023-08-24T04:57:38;6.40;;;3.60;;
68910;SDS011;55953;51.650;-0.522;2023-08-24T05:00:07;6.80;;;3.40;;
68910;SDS011;55953;51.650;-0.522;2023-08-24T05:02:35;6.40;;;3.70;;
68910;SDS011;55953;51.650;-0.522;2023-08-24T05:05:03;8.40;;;3.90;;
68910;SDS011;55953;51.650;-0.522;2023-08-24T05:07:31;6.30;;;3.90;;
68910;SDS011;55953;51.650;-0.522;2023-08-24T05:09:59;6.20;;;3.80;;
68910;SDS011;55953;51.650;-0.522;2023-08-24T05:12:27;6.50;;;3.50;;
68910;SDS011;55953;51.650;-0.522;2023-08-24T05:14:55;8.60;;;3.80;;
68910;SDS011;55953;51.650;-0.522;2023-08-24T05:17:23;6.90;;;3.70;;
68910;SDS011;55953;51.650;-0.522;2023-08-24T05:19:53;7.60;;;3.80;;
68910;SDS011;55953;51.650;-0.522;2023-08-24T05:22:22;8.00;;;3.50;;
68910;SDS011;55953;51.650;-0.522;2023-08-24T05:24:50;8.80;;;3.30;;
68910;SDS011;55953;51.650;-0.522;2023-08-24T05:27:17;5.60;;;3.40;;
68910;SDS011;55953;51.650;-0.522;2023-08-24T05:29:45;7.20;;;3.50;;
68910;SDS011;55953;51.650;-0.522;2023-08-24T05:32:13;7.80;;;3.50;;
68910;SDS011;55953;51.650;-0.522;2023-08-24T05:34:41;7.20;;;3.40;;
68910;SDS011;55953;51.650;-0.522;2023-08-24T05:37:08;6.80;;;3.30;;
68910;SDS011;55953;51.650;-0.522;2023-08-24T05:39:36;6.90;;;3.60;;
68910;SDS011;55953;51.650;-0.522;2023-08-24T05:42:05;6.40;;;3.60;;
68910;SDS011;55953;51.650;-0.522;2023-08-24T05:44:33;6.50;;;3.50;;
68910;SDS011;55953;51.650;-0.522;2023-08-24T05:47:01;6.40;;;3.40;;
68910;SDS011;55953;51.650;-0.522;2023-08-24T05:49:29;5.50;;;3.10;;
68910;SDS011;55953;51.650;-0.522;2023-08-24T05:51:57;6.80;;;3.30;;
68910;SDS011;55953;51.650;-0.522;2023-08-24T05:54:25;6.70;;;3.40;;
68910;SDS011;55953;51.650;-0.522;2023-08-24T05:56:53;7.80;;;3.90;;
68910;SDS011;55953;51.650;-0.522;2023-08-24T05:59:21;7.40;;;3.80;;
68910;SDS011;55953;51.650;-0.522;2023-08-24T06:01:49;7.30;;;3.60;;
68910;SDS011;55953;51.650;-0.522;2023-08-24T06:04:16;7.30;;;4.00;;
68910;SDS011;55953;51.650;-0.522;2023-08-24T06:06:44;8.90;;;3.80;;
68910;SDS011;55953;51.650;-0.522;2023-08-24T06:09:12;9.20;;;3.90;;
68910;SDS011;55953;51.650;-0.522;2023-08-24T06:11:40;6.90;;;3.80;;
68910;SDS011;55953;51.650;-0.522;2023-08-24T06:14:08;9.80;;;4.10;;
68910;SDS011;55953;51.650;-0.522;2023-08-24T06:16:36;8.20;;;3.90;;
68910;SDS011;55953;51.650;-0.522;2023-08-24T06:19:04;5.70;;;4.10;;
68910;SDS011;55953;51.650;-0.522;2023-08-24T06:21:32;8.40;;;4.10;;
68910;SDS011;55953;51.650;-0.522;2023-08-24T06:24:00;8.70;;;3.60;;
68910;SDS011;55953;51.650;-0.522;2023-08-24T06:26:28;9.30;;;3.60;;
68910;SDS011;55953;51.650;-0.522;2023-08-24T06:28:56;7.80;;;4.00;;
68910;SDS011;55953;51.650;-0.522;2023-08-24T06:31:24;7.10;;;3.30;;
68910;SDS011;55953;51.650;-0.522;2023-08-24T06:33:52;9.60;;;3.80;;
68910;SDS011;55953;51.650;-0.522;2023-08-24T06:36:20;7.60;;;3.60;;
68910;SDS011;55953;51.650;-0.522;2023-08-24T06:38:48;8.00;;;3.80;;
68910;SDS011;55953;51.650;-0.522;2023-08-24T06:41:16;6.40;;;3.70;;
68910;SDS011;55953;51.650;-0.522;2023-08-24T06:43:44;8.70;;;3.80;;
68910;SDS011;55953;51.650;-0.522;2023-08-24T06:46:12;8.80;;;3.90;;
68910;SDS011;55953;51.650;-0.522;2023-08-24T06:48:40;6.50;;;3.70;;
68910;SDS011;55953;51.650;-0.522;2023-08-24T06:51:10;8.00;;;4.30;;
68910;SDS011;55953;51.650;-0.522;2023-08-24T06:53:39;6.30;;;3.80;;
68910;SDS011;55953;51.650;-0.522;2023-08-24T06:56:07;9.00;;;4.20;;
68910;SDS011;55953;51.650;-0.522;2023-08-24T06:58:36;8.40;;;4.20;;
68910;SDS011;55953;51.650;-0.522;2023-08-24T07:01:04;6.90;;;3.50;;
68910;SDS011;55953;51.650;-0.522;2023-08-24T07:03:34;8.30;;;4.20;;
68910;SDS011;55953;51.650;-0.522;2023-08-24T07:06:02;8.30;;;4.10;;
68910;SDS011;55953;51.650;-0.522;2023-08-24T07:08:30;7.40;;;3.90;;
68910;SDS011;55953;51.650;-0.522;2023-08-24T07:10:58;7.00;;;3.80;;
68910;SDS011;55953;51.650;-0.522;2023-08-24T07:13:27;7.00;;;3.50;;
68910;SDS011;55953;51.650;-0.522;2023-08-24T07:15:55;8.50;;;4.00;;
68910;SDS011;55953;51.650;-0.522;2023-08-24T07:18:23;6.50;;;3.80;;
68910;SDS011;55953;51.650;-0.522;2023-08-24T07:20:52;9.90;;;4.70;;
68910;SDS011;55953;51.650;-0.522;2023-08-24T07:23:19;7.80;;;3.90;;
68910;SDS011;55953;51.650;-0.522;2023-08-24T07:25:47;10.40;;;4.20;;
68910;SDS011;55953;51.650;-0.522;2023-08-24T07:28:16;8.20;;;4.60;;
68910;SDS011;55953;51.650;-0.522;2023-08-24T07:30:44;9.10;;;4.30;;
68910;SDS011;55953;51.650;-0.522;2023-08-24T07:33:12;7.30;;;4.20;;
68910;SDS011;55953;51.650;-0.522;2023-08-24T07:35:40;10.80;;;4.30;;
68910;SDS011;55953;51.650;-0.522;2023-08-24T07:38:08;9.00;;;4.80;;
68910;SDS011;55953;51.650;-0.522;2023-08-24T07:40:35;9.30;;;4.50;;
68910;SDS011;55953;51.650;-0.522;2023-08-24T07:43:04;9.00;;;4.30;;
68910;SDS011;55953;51.650;-0.522;2023-08-24T07:45:32;13.50;;;4.40;;
68910;SDS011;55953;51.650;-0.522;2023-08-24T07:48:01;9.40;;;4.90;;
68910;SDS011;55953;51.650;-0.522;2023-08-24T07:50:28;9.90;;;4.70;;
68910;SDS011;55953;51.650;-0.522;2023-08-24T07:52:56;10.70;;;5.70;;
68910;SDS011;55953;51.650;-0.522;2023-08-24T07:55:24;9.20;;;5.20;;
68910;SDS011;55953;51.650;-0.522;2023-08-24T07:57:53;9.20;;;5.20;;
68910;SDS011;55953;51.650;-0.522;2023-08-24T08:00:21;11.10;;;5.90;;
68910;SDS011;55953;51.650;-0.522;2023-08-24T08:02:49;9.80;;;5.40;;
68910;SDS011;55953;51.650;-0.522;2023-08-24T08:05:18;7.70;;;5.40;;
68910;SDS011;55953;51.650;-0.522;2023-08-24T08:07:47;10.70;;;6.60;;
68910;SDS011;55953;51.650;-0.522;2023-08-24T08:10:15;9.10;;;5.50;;
68910;SDS011;55953;51.650;-0.522;2023-08-24T08:12:44;10.70;;;5.40;;
68910;SDS011;55953;51.650;-0.522;2023-08-24T08:15:12;10.50;;;5.70;;
68910;SDS011;55953;51.650;-0.522;2023-08-24T08:17:40;10.70;;;5.50;;
68910;SDS011;55953;51.650;-0.522;2023-08-24T08:20:10;10.80;;;5.50;;
68910;SDS011;55953;51.650;-0.522;2023-08-24T08:22:39;11.80;;;5.60;;
68910;SDS011;55953;51.650;-0.522;2023-08-24T08:25:07;12.30;;;5.50;;
68910;SDS011;55953;51.650;-0.522;2023-08-24T08:27:35;9.50;;;5.50;;
68910;SDS011;55953;51.650;-0.522;2023-08-24T08:30:03;12.20;;;5.70;;
68910;SDS011;55953;51.650;-0.522;2023-08-24T08:32:32;12.80;;;6.30;;
68910;SDS011;55953;51.650;-0.522;2023-08-24T08:35:00;12.80;;;6.30;;
68910;SDS011;55953;51.650;-0.522;2023-08-24T08:37:30;12.60;;;5.90;;
68910;SDS011;55953;51.650;-0.522;2023-08-24T08:39:59;11.60;;;5.90;;
68910;SDS011;55953;51.650;-0.522;2023-08-24T08:42:30;10.60;;;6.20;;
68910;SDS011;55953;51.650;-0.522;2023-08-24T08:44:59;10.60;;;6.20;;
68910;SDS011;55953;51.650;-0.522;2023-08-24T08:47:27;10.50;;;6.00;;
68910;SDS011;55953;51.650;-0.522;2023-08-24T08:49:55;9.10;;;5.90;;
68910;SDS011;55953;51.650;-0.522;2023-08-24T08:52:23;11.10;;;6.80;;
68910;SDS011;55953;51.650;-0.522;2023-08-24T08:54:53;9.90;;;6.00;;
68910;SDS011;55953;51.650;-0.522;2023-08-24T08:57:22;10.80;;;6.30;;
68910;SDS011;55953;51.650;-0.522;2023-08-24T08:59:52;12.10;;;6.30;;
68910;SDS011;55953;51.650;-0.522;2023-08-24T09:02:21;15.00;;;7.00;;
68910;SDS011;55953;51.650;-0.522;2023-08-24T09:04:51;15.00;;;8.40;;
68910;SDS011;55953;51.650;-0.522;2023-08-24T09:07:19;22.60;;;11.70;;
68910;SDS011;55953;51.650;-0.522;2023-08-24T09:09:48;28.70;;;13.00;;
68910;SDS011;55953;51.650;-0.522;2023-08-24T09:12:16;23.50;;;12.80;;
68910;SDS011;55953;51.650;-0.522;2023-08-24T09:14:44;20.10;;;9.50;;
68910;SDS011;55953;51.650;-0.522;2023-08-24T09:17:20;15.90;;;8.20;;
68910;SDS011;55953;51.650;-0.522;2023-08-24T09:19:50;15.20;;;7.50;;
68910;SDS011;55953;51.650;-0.522;2023-08-24T09:22:21;15.50;;;7.40;;
68910;SDS011;55953;51.650;-0.522;2023-08-24T09:24:49;15.50;;;7.10;;
68910;SDS011;55953;51.650;-0.522;2023-08-24T09:27:21;14.60;;;7.50;;
68910;SDS011;55953;51.650;-0.522;2023-08-24T09:29:51;13.40;;;7.60;;
68910;SDS011;55953;51.650;-0.522;2023-08-24T09:32:29;14.90;;;7.20;;
68910;SDS011;55953;51.650;-0.522;2023-08-24T09:35:20;14.70;;;7.50;;
68910;SDS011;55953;51.650;-0.522;2023-08-24T09:37:49;16.90;;;7.10;;
68910;SDS011;55953;51.650;-0.522;2023-08-24T09:40:24;13.90;;;6.90;;
68910;SDS011;55953;51.650;-0.522;2023-08-24T09:42:53;9.90;;;6.40;;
68910;SDS011;55953;51.650;-0.522;2023-08-24T09:45:21;14.40;;;5.70;;
68910;SDS011;55953;51.650;-0.522;2023-08-24T09:47:49;9.20;;;5.70;;
68910;SDS011;55953;51.650;-0.522;2023-08-24T09:50:19;10.50;;;5.30;;
68910;SDS011;55953;51.650;-0.522;2023-08-24T09:52:47;12.10;;;5.20;;
68910;SDS011;55953;51.650;-0.522;2023-08-24T09:55:22;9.70;;;5.60;;
68910;SDS011;55953;51.650;-0.522;2023-08-24T09:57:54;10.70;;;5.60;;
68910;SDS011;55953;51.650;-0.522;2023-08-24T10:00:25;14.00;;;6.20;;
68910;SDS011;55953;51.650;-0.522;2023-08-24T10:02:53;11.80;;;6.00;;
68910;SDS011;55953;51.650;-0.522;2023-08-24T10:05:24;8.60;;;4.80;;
68910;SDS011;55953;51.650;-0.522;2023-08-24T10:07:56;8.20;;;4.90;;
68910;SDS011;55953;51.650;-0.522;2023-08-24T10:10:27;8.90;;;4.60;;
68910;SDS011;55953;51.650;-0.522;2023-08-24T10:12:59;7.70;;;4.90;;
68910;SDS011;55953;51.650;-0.522;2023-08-24T10:15:36;9.50;;;4.30;;
68910;SDS011;55953;51.650;-0.522;2023-08-24T10:18:05;7.40;;;4.10;;
68910;SDS011;55953;51.650;-0.522;2023-08-24T10:20:34;9.10;;;4.00;;
68910;SDS011;55953;51.650;-0.522;2023-08-24T10:23:02;7.20;;;4.00;;
68910;SDS011;55953;51.650;-0.522;2023-08-24T10:25:32;7.40;;;4.00;;
68910;SDS011;55953;51.650;-0.522;2023-08-24T10:28:01;8.90;;;4.10;;
68910;SDS011;55953;51.650;-0.522;2023-08-24T10:30:30;9.20;;;3.80;;
68910;SDS011;55953;51.650;-0.522;2023-08-24T10:32:59;7.20;;;3.30;;
68910;SDS011;55953;51.650;-0.522;2023-08-24T10:35:28;8.00;;;3.40;;
68910;SDS011;55953;51.650;-0.522;2023-08-24T10:37:58;6.90;;;3.30;;
68910;SDS011;55953;51.650;-0.522;2023-08-24T10:40:37;5.70;;;3.30;;
68910;SDS011;55953;51.650;-0.522;2023-08-24T10:43:12;5.60;;;3.10;;
68910;SDS011;55953;51.650;-0.522;2023-08-24T10:48:29;8.10;;;3.20;;
68910;SDS011;55953;51.650;-0.522;2023-08-24T10:53:52;5.40;;;3.20;;
68910;SDS011;55953;51.650;-0.522;2023-08-24T10:56:29;6.70;;;3.30;;
68910;SDS011;55953;51.650;-0.522;2023-08-24T10:59:19;7.90;;;3.10;;
68910;SDS011;55953;51.650;-0.522;2023-08-24T11:04:21;7.60;;;3.40;;
68910;SDS011;55953;51.650;-0.522;2023-08-24T11:06:59;5.40;;;2.90;;
68910;SDS011;55953;51.650;-0.522;2023-08-24T11:09:46;5.50;;;2.90;;
68910;SDS011;55953;51.650;-0.522;2023-08-24T11:12:17;9.40;;;3.40;;
68910;SDS011;55953;51.650;-0.522;2023-08-24T11:14:49;7.50;;;3.90;;
68910;SDS011;55953;51.650;-0.522;2023-08-24T11:17:21;7.90;;;3.30;;
68910;SDS011;55953;51.650;-0.522;2023-08-24T11:19:51;6.90;;;3.60;;
68910;SDS011;55953;51.650;-0.522;2023-08-24T11:22:21;5.80;;;2.70;;
68910;SDS011;55953;51.650;-0.522;2023-08-24T11:24:49;5.90;;;3.10;;
68910;SDS011;55953;51.650;-0.522;2023-08-24T11:27:20;5.60;;;2.90;;
68910;SDS011;55953;51.650;-0.522;2023-08-24T11:29:58;6.20;;;3.10;;
68910;SDS011;55953;51.650;-0.522;2023-08-24T11:32:27;7.70;;;3.00;;
68910;SDS011;55953;51.650;-0.522;2023-08-24T11:34:55;7.60;;;2.90;;
68910;SDS011;55953;51.650;-0.522;2023-08-24T11:37:25;8.20;;;3.40;;
68910;SDS011;55953;51.650;-0.522;2023-08-24T11:39:53;4.60;;;2.80;;
68910;SDS011;55953;51.650;-0.522;2023-08-24T11:42:21;6.90;;;3.10;;
68910;SDS011;55953;51.650;-0.522;2023-08-24T11:44:50;5.70;;;3.00;;
68910;SDS011;55953;51.650;-0.522;2023-08-24T11:47:22;5.60;;;2.80;;
68910;SDS011;55953;51.650;-0.522;2023-08-24T11:49:51;6.90;;;2.90;;
68910;SDS011;55953;51.650;-0.522;2023-08-24T11:52:19;5.10;;;2.80;;
68910;SDS011;55953;51.650;-0.522;2023-08-24T11:54:47;4.90;;;2.80;;
68910;SDS011;55953;51.650;-0.522;2023-08-24T11:57:15;5.90;;;2.80;;
68910;SDS011;55953;51.650;-0.522;2023-08-24T11:59:43;5.30;;;3.10;;
68910;SDS011;55953;51.650;-0.522;2023-08-24T12:02:11;5.90;;;2.90;;
68910;SDS011;55953;51.650;-0.522;2023-08-24T12:04:40;5.90;;;2.60;;
68910;SDS011;55953;51.650;-0.522;2023-08-24T12:07:12;5.60;;;2.70;;
68910;SDS011;55953;51.650;-0.522;2023-08-24T12:09:43;5.10;;;2.80;;
68910;SDS011;55953;51.650;-0.522;2023-08-24T12:12:16;5.70;;;2.80;;
68910;SDS011;55953;51.650;-0.522;2023-08-24T12:14:46;5.10;;;2.80;;
68910;SDS011;55953;51.650;-0.522;2023-08-24T12:17:16;6.30;;;2.90;;
68910;SDS011;55953;51.650;-0.522;2023-08-24T12:19:58;5.40;;;2.70;;
68910;SDS011;55953;51.650;-0.522;2023-08-24T12:22:29;6.20;;;3.00;;
68910;SDS011;55953;51.650;-0.522;2023-08-24T12:24:57;5.00;;;2.60;;
68910;SDS011;55953;51.650;-0.522;2023-08-24T12:27:26;4.20;;;2.90;;
68910;SDS011;55953;51.650;-0.522;2023-08-24T12:30:00;5.20;;;2.90;;
68910;SDS011;55953;51.650;-0.522;2023-08-24T12:32:45;5.70;;;2.60;;
68910;SDS011;55953;51.650;-0.522;2023-08-24T12:35:14;4.70;;;2.60;;
68910;SDS011;55953;51.650;-0.522;2023-08-24T12:37:43;4.50;;;2.50;;
68910;SDS011;55953;51.650;-0.522;2023-08-24T12:40:12;5.50;;;2.60;;
68910;SDS011;55953;51.650;-0.522;2023-08-24T12:42:40;5.00;;;2.90;;
68910;SDS011;55953;51.650;-0.522;2023-08-24T12:45:08;6.00;;;2.60;;
68910;SDS011;55953;51.650;-0.522;2023-08-24T12:47:36;8.50;;;2.90;;
68910;SDS011;55953;51.650;-0.522;2023-08-24T12:50:05;5.30;;;2.60;;
68910;SDS011;55953;51.650;-0.522;2023-08-24T12:52:34;4.90;;;2.70;;
68910;SDS011;55953;51.650;-0.522;2023-08-24T12:55:02;5.80;;;2.50;;
68910;SDS011;55953;51.650;-0.522;2023-08-24T12:57:31;5.10;;;2.60;;
68910;SDS011;55953;51.650;-0.522;2023-08-24T12:59:58;4.60;;;2.50;;
68910;SDS011;55953;51.650;-0.522;2023-08-24T13:02:26;6.70;;;2.60;;
68910;SDS011;55953;51.650;-0.522;2023-08-24T13:05:05;4.40;;;2.30;;
68910;SDS011;55953;51.650;-0.522;2023-08-24T13:07:34;4.10;;;2.40;;
68910;SDS011;55953;51.650;-0.522;2023-08-24T13:10:03;5.10;;;2.10;;
68910;SDS011;55953;51.650;-0.522;2023-08-24T13:12:33;4.90;;;2.50;;
68910;SDS011;55953;51.650;-0.522;2023-08-24T13:15:02;6.60;;;2.50;;
68910;SDS011;55953;51.650;-0.522;2023-08-24T13:17:31;5.30;;;2.30;;
68910;SDS011;55953;51.650;-0.522;2023-08-24T13:19:59;5.10;;;2.30;;
68910;SDS011;55953;51.650;-0.522;2023-08-24T13:22:26;6.00;;;2.00;;
68910;SDS011;55953;51.650;-0.522;2023-08-24T13:24:54;3.60;;;2.20;;
68910;SDS011;55953;51.650;-0.522;2023-08-24T13:27:22;4.60;;;2.30;;
68910;SDS011;55953;51.650;-0.522;2023-08-24T13:29:50;5.20;;;2.10;;
68910;SDS011;55953;51.650;-0.522;2023-08-24T13:32:18;5.10;;;1.90;;
68910;SDS011;55953;51.650;-0.522;2023-08-24T13:34:47;4.30;;;2.20;;
68910;SDS011;55953;51.650;-0.522;2023-08-24T13:37:15;3.60;;;2.10;;
68910;SDS011;55953;51.650;-0.522;2023-08-24T13:39:43;4.70;;;2.50;;
68910;SDS011;55953;51.650;-0.522;2023-08-24T13:42:11;4.40;;;2.20;;
68910;SDS011;55953;51.650;-0.522;2023-08-24T13:44:40;6.30;;;2.40;;
68910;SDS011;55953;51.650;-0.522;2023-08-24T13:47:08;6.00;;;2.30;;
68910;SDS011;55953;51.650;-0.522;2023-08-24T13:49:36;4.30;;;2.40;;
68910;SDS011;55953;51.650;-0.522;2023-08-24T13:52:07;4.90;;;2.30;;
68910;SDS011;55953;51.650;-0.522;2023-08-24T13:54:36;6.00;;;2.30;;
68910;SDS011;55953;51.650;-0.522;2023-08-24T13:57:04;4.60;;;2.60;;
68910;SDS011;55953;51.650;-0.522;2023-08-24T13:59:32;5.10;;;2.50;;
68910;SDS011;55953;51.650;-0.522;2023-08-24T14:02:00;6.00;;;2.70;;
68910;SDS011;55953;51.650;-0.522;2023-08-24T14:04:28;5.70;;;2.40;;
68910;SDS011;55953;51.650;-0.522;2023-08-24T14:06:56;6.50;;;2.70;;
68910;SDS011;55953;51.650;-0.522;2023-08-24T14:09:24;4.00;;;2.40;;
68910;SDS011;55953;51.650;-0.522;2023-08-24T14:11:52;5.30;;;2.50;;
68910;SDS011;55953;51.650;-0.522;2023-08-24T14:14:19;5.00;;;2.40;;
68910;SDS011;55953;51.650;-0.522;2023-08-24T14:16:53;4.50;;;2.30;;
68910;SDS011;55953;51.650;-0.522;2023-08-24T14:19:24;4.30;;;2.10;;
68910;SDS011;55953;51.650;-0.522;2023-08-24T14:21:55;6.00;;;2.40;;
68910;SDS011;55953;51.650;-0.522;2023-08-24T14:24:23;6.40;;;2.40;;
68910;SDS011;55953;51.650;-0.522;2023-08-24T14:26:54;5.30;;;2.60;;
68910;SDS011;55953;51.650;-0.522;2023-08-24T14:29:22;7.70;;;3.20;;
68910;SDS011;55953;51.650;-0.522;2023-08-24T14:31:50;6.10;;;3.40;;
68910;SDS011;55953;51.650;-0.522;2023-08-24T14:34:18;6.70;;;3.00;;
68910;SDS011;55953;51.650;-0.522;2023-08-24T14:36:46;11.40;;;3.10;;
68910;SDS011;55953;51.650;-0.522;2023-08-24T14:39:14;5.40;;;2.60;;
68910;SDS011;55953;51.650;-0.522;2023-08-24T14:41:42;6.50;;;2.60;;
68910;SDS011;55953;51.650;-0.522;2023-08-24T14:44:10;4.90;;;2.50;;
68910;SDS011;55953;51.650;-0.522;2023-08-24T14:46:38;6.00;;;2.80;;
68910;SDS011;55953;51.650;-0.522;2023-08-24T14:49:06;3.70;;;2.40;;
68910;SDS011;55953;51.650;-0.522;2023-08-24T14:51:35;5.70;;;2.60;;
68910;SDS011;55953;51.650;-0.522;2023-08-24T14:54:03;5.30;;;2.40;;